sensor_id;sensor_type;location;lat;lon;timestamp;temperature;humidity
981;DHT22;479;53.514;9.994;2022-07-31T00:00:00;18.90;99.90
981;DHT22;479;53.514;9.994;2022-07-31T00:02:26;18.90;99.90
981;DHT22;479;53.514;9.994;2022-07-31T00:04:53;18.90;99.90
981;DHT22;479;53.514;9.994;2022-07-31T00:07:20;18.90;99.90
981;DHT22;479;53.514;9.994;2022-07-31T00:09:47;18.90;99.90
981;DHT22;479;53.514;9.994;2022-07-31T00:12:16;19.00;99.90
981;DHT22;479;53.514;9.994;2022-07-31T00:14:43;19.00;99.90
981;DHT22;479;53.514;9.994;2022-07-31T00:17:10;19.00;99.90
981;DHT22;479;53.514;9.994;2022-07-31T00:19:37;19.00;99.90
981;DHT22;479;53.514;9.994;2022-07-31T00:22:04;18.90;99.90
981;DHT22;479;53.514;9.994;2022-07-31T00:24:30;18.90;99.90
981;DHT22;479;53.514;9.994;2022-07-31T00:26:57;18.90;99.90
981;DHT22;479;53.514;9.994;2022-07-31T00:29:26;18.70;99.90
981;DHT22;479;53.514;9.994;2022-07-31T00:31:52;18.70;99.90
981;DHT22;479;53.514;9.994;2022-07-31T00:34:19;18.70;99.90
981;DHT22;479;53.514;9.994;2022-07-31T00:36:46;18.70;99.90
981;DHT22;479;53.514;9.994;2022-07-31T00:39:13;18.70;99.90
981;DHT22;479;53.514;9.994;2022-07-31T00:41:42;18.60;99.90
981;DHT22;479;53.514;9.994;2022-07-31T00:44:09;18.60;99.90
981;DHT22;479;53.514;9.994;2022-07-31T00:46:38;18.60;99.90
981;DHT22;479;53.514;9.994;2022-07-31T00:49:05;18.60;99.90
981;DHT22;479;53.514;9.994;2022-07-31T00:51:33;18.60;99.90
981;DHT22;479;53.514;9.994;2022-07-31T00:54:00;18.60;99.90
981;DHT22;479;53.514;9.994;2022-07-31T00:56:27;18.60;99.90
981;DHT22;479;53.514;9.994;2022-07-31T00:58:54;18.60;99.90
981;DHT22;479;53.514;9.994;2022-07-31T01:01:21;18.60;99.90
981;DHT22;479;53.514;9.994;2022-07-31T01:03:49;18.60;99.90
981;DHT22;479;53.514;9.994;2022-07-31T01:06:18;18.60;99.90
981;DHT22;479;53.514;9.994;2022-07-31T01:08:45;18.60;99.90
981;DHT22;479;53.514;9.994;2022-07-31T01:11:17;18.60;99.90
981;DHT22;479;53.514;9.994;2022-07-31T01:13:49;18.60;99.90
981;DHT22;479;53.514;9.994;2022-07-31T01:16:17;18.60;99.90
981;DHT22;479;53.514;9.994;2022-07-31T01:18:44;18.60;99.90
981;DHT22;479;53.514;9.994;2022-07-31T01:21:18;18.60;99.90
981;DHT22;479;53.514;9.994;2022-07-31T01:24:07;18.50;99.90
981;DHT22;479;53.514;9.994;2022-07-31T01:27:03;18.50;99.90
981;DHT22;479;53.514;9.994;2022-07-31T01:29:36;18.60;99.90
981;DHT22;479;53.514;9.994;2022-07-31T01:32:07;18.60;99.90
981;DHT22;479;53.514;9.994;2022-07-31T01:34:41;18.60;99.90
981;DHT22;479;53.514;9.994;2022-07-31T01:37:13;18.70;99.90
981;DHT22;479;53.514;9.994;2022-07-31T01:39:45;18.70;99.90
981;DHT22;479;53.514;9.994;2022-07-31T01:42:15;18.60;99.90
981;DHT22;479;53.514;9.994;2022-07-31T01:44:48;18.50;99.90
981;DHT22;479;53.514;9.994;2022-07-31T01:47:19;18.50;99.90
981;DHT22;479;53.514;9.994;2022-07-31T01:49:47;18.50;99.90
981;DHT22;479;53.514;9.994;2022-07-31T01:52:18;18.60;99.90
981;DHT22;479;53.514;9.994;2022-07-31T01:54:46;18.60;99.90
981;DHT22;479;53.514;9.994;2022-07-31T01:57:16;18.60;99.90
981;DHT22;479;53.514;9.994;2022-07-31T01:59:49;18.60;99.90
981;DHT22;479;53.514;9.994;2022-07-31T02:02:20;18.50;99.90
981;DHT22;479;53.514;9.994;2022-07-31T02:04:48;18.40;99.90
981;DHT22;479;53.514;9.994;2022-07-31T02:07:16;18.30;99.90
981;DHT22;479;53.514;9.994;2022-07-31T02:09:46;18.40;99.90
981;DHT22;479;53.514;9.994;2022-07-31T02:12:13;18.40;99.90
981;DHT22;479;53.514;9.994;2022-07-31T02:14:41;18.60;99.90
981;DHT22;479;53.514;9.994;2022-07-31T02:17:12;18.50;99.90
981;DHT22;479;53.514;9.994;2022-07-31T02:20:12;18.50;99.90
981;DHT22;479;53.514;9.994;2022-07-31T02:22:41;18.50;99.90
981;DHT22;479;53.514;9.994;2022-07-31T02:25:08;18.40;99.90
981;DHT22;479;53.514;9.994;2022-07-31T02:27:35;18.30;99.90
981;DHT22;479;53.514;9.994;2022-07-31T02:30:05;18.20;99.90
981;DHT22;479;53.514;9.994;2022-07-31T02:32:35;18.20;99.90
981;DHT22;479;53.514;9.994;2022-07-31T02:35:05;18.20;99.90
981;DHT22;479;53.514;9.994;2022-07-31T02:37:35;18.30;99.90
981;DHT22;479;53.514;9.994;2022-07-31T02:40:05;18.30;99.90
981;DHT22;479;53.514;9.994;2022-07-31T02:42:35;18.20;99.90
981;DHT22;479;53.514;9.994;2022-07-31T02:45:03;18.10;99.90
981;DHT22;479;53.514;9.994;2022-07-31T02:47:30;18.10;99.90
981;DHT22;479;53.514;9.994;2022-07-31T02:50:01;18.00;99.90
981;DHT22;479;53.514;9.994;2022-07-31T02:52:29;18.20;99.90
981;DHT22;479;53.514;9.994;2022-07-31T02:54:57;18.30;99.90
981;DHT22;479;53.514;9.994;2022-07-31T02:57:25;18.30;99.90
981;DHT22;479;53.514;9.994;2022-07-31T02:59:52;18.10;99.90
981;DHT22;479;53.514;9.994;2022-07-31T03:02:20;17.90;99.90
981;DHT22;479;53.514;9.994;2022-07-31T03:04:47;17.80;99.90
981;DHT22;479;53.514;9.994;2022-07-31T03:07:15;17.70;99.90
981;DHT22;479;53.514;9.994;2022-07-31T03:09:44;17.50;99.90
981;DHT22;479;53.514;9.994;2022-07-31T03:12:31;17.50;99.90
981;DHT22;479;53.514;9.994;2022-07-31T03:14:58;17.40;99.90
981;DHT22;479;53.514;9.994;2022-07-31T03:17:27;17.40;99.90
981;DHT22;479;53.514;9.994;2022-07-31T03:19:57;17.30;99.90
981;DHT22;479;53.514;9.994;2022-07-31T03:22:25;17.30;99.90
981;DHT22;479;53.514;9.994;2022-07-31T03:24:52;17.30;99.90
981;DHT22;479;53.514;9.994;2022-07-31T03:27:23;17.30;99.90
981;DHT22;479;53.514;9.994;2022-07-31T03:29:51;17.20;99.90
981;DHT22;479;53.514;9.994;2022-07-31T03:32:20;17.20;99.90
981;DHT22;479;53.514;9.994;2022-07-31T03:34:47;17.20;99.90
981;DHT22;479;53.514;9.994;2022-07-31T03:37:14;17.20;99.90
981;DHT22;479;53.514;9.994;2022-07-31T03:39:42;17.20;99.90
981;DHT22;479;53.514;9.994;2022-07-31T03:42:12;17.20;99.90
981;DHT22;479;53.514;9.994;2022-07-31T03:44:40;17.20;99.90
981;DHT22;479;53.514;9.994;2022-07-31T03:47:08;17.20;99.90
981;DHT22;479;53.514;9.994;2022-07-31T03:49:36;17.20;99.90
981;DHT22;479;53.514;9.994;2022-07-31T03:52:03;17.20;99.90
981;DHT22;479;53.514;9.994;2022-07-31T03:54:30;17.20;99.90
981;DHT22;479;53.514;9.994;2022-07-31T03:57:14;17.20;99.90
981;DHT22;479;53.514;9.994;2022-07-31T03:59:43;17.20;99.90
981;DHT22;479;53.514;9.994;2022-07-31T04:02:10;17.20;99.90
981;DHT22;479;53.514;9.994;2022-07-31T04:04:44;17.30;99.90
981;DHT22;479;53.514;9.994;2022-07-31T04:07:12;17.30;99.90
981;DHT22;479;53.514;9.994;2022-07-31T04:09:39;17.30;99.90
981;DHT22;479;53.514;9.994;2022-07-31T04:12:09;17.30;99.90
981;DHT22;479;53.514;9.994;2022-07-31T04:14:37;17.30;99.90
981;DHT22;479;53.514;9.994;2022-07-31T04:17:04;17.30;99.90
981;DHT22;479;53.514;9.994;2022-07-31T04:19:31;17.30;99.90
981;DHT22;479;53.514;9.994;2022-07-31T04:21:58;17.30;99.90
981;DHT22;479;53.514;9.994;2022-07-31T04:24:26;17.30;99.90
981;DHT22;479;53.514;9.994;2022-07-31T04:27:11;17.30;99.90
981;DHT22;479;53.514;9.994;2022-07-31T04:29:43;17.30;99.90
981;DHT22;479;53.514;9.994;2022-07-31T04:32:11;17.30;99.90
981;DHT22;479;53.514;9.994;2022-07-31T04:35:01;17.40;99.90
981;DHT22;479;53.514;9.994;2022-07-31T04:37:29;17.40;99.90
981;DHT22;479;53.514;9.994;2022-07-31T04:39:56;17.50;99.90
981;DHT22;479;53.514;9.994;2022-07-31T04:42:24;17.60;99.90
981;DHT22;479;53.514;9.994;2022-07-31T04:44:52;17.70;99.90
981;DHT22;479;53.514;9.994;2022-07-31T04:47:19;17.70;99.90
981;DHT22;479;53.514;9.994;2022-07-31T04:49:48;17.70;99.90
981;DHT22;479;53.514;9.994;2022-07-31T04:52:16;17.70;99.90
981;DHT22;479;53.514;9.994;2022-07-31T04:54:45;17.70;99.90
981;DHT22;479;53.514;9.994;2022-07-31T04:57:14;17.70;99.90
981;DHT22;479;53.514;9.994;2022-07-31T04:59:40;17.60;99.90
981;DHT22;479;53.514;9.994;2022-07-31T05:02:09;17.70;99.90
981;DHT22;479;53.514;9.994;2022-07-31T05:04:36;17.70;99.90
981;DHT22;479;53.514;9.994;2022-07-31T05:07:02;17.70;99.90
981;DHT22;479;53.514;9.994;2022-07-31T05:09:30;17.70;99.90
981;DHT22;479;53.514;9.994;2022-07-31T05:12:04;17.70;99.90
981;DHT22;479;53.514;9.994;2022-07-31T05:14:31;17.80;99.90
981;DHT22;479;53.514;9.994;2022-07-31T05:16:58;17.90;99.90
981;DHT22;479;53.514;9.994;2022-07-31T05:19:32;17.90;99.90
981;DHT22;479;53.514;9.994;2022-07-31T05:22:18;17.90;99.90
981;DHT22;479;53.514;9.994;2022-07-31T05:25:08;17.90;99.90
981;DHT22;479;53.514;9.994;2022-07-31T05:27:35;18.00;99.90
981;DHT22;479;53.514;9.994;2022-07-31T05:30:02;18.00;99.90
981;DHT22;479;53.514;9.994;2022-07-31T05:32:32;17.90;99.90
981;DHT22;479;53.514;9.994;2022-07-31T05:35:00;17.80;99.90
981;DHT22;479;53.514;9.994;2022-07-31T05:37:27;17.80;99.90
981;DHT22;479;53.514;9.994;2022-07-31T05:39:54;17.90;99.90
981;DHT22;479;53.514;9.994;2022-07-31T05:42:39;18.00;99.90
981;DHT22;479;53.514;9.994;2022-07-31T05:45:30;18.10;99.90
981;DHT22;479;53.514;9.994;2022-07-31T05:47:57;18.20;99.90
981;DHT22;479;53.514;9.994;2022-07-31T05:50:25;18.40;99.90
981;DHT22;479;53.514;9.994;2022-07-31T05:52:52;18.50;99.90
981;DHT22;479;53.514;9.994;2022-07-31T05:55:44;18.60;99.90
981;DHT22;479;53.514;9.994;2022-07-31T05:58:30;18.70;99.90
981;DHT22;479;53.514;9.994;2022-07-31T06:00:57;18.90;99.90
981;DHT22;479;53.514;9.994;2022-07-31T06:03:25;19.10;99.90
981;DHT22;479;53.514;9.994;2022-07-31T06:06:02;19.40;99.90
981;DHT22;479;53.514;9.994;2022-07-31T06:08:29;19.50;99.90
981;DHT22;479;53.514;9.994;2022-07-31T06:10:56;19.80;99.90
981;DHT22;479;53.514;9.994;2022-07-31T06:13:24;19.70;99.90
981;DHT22;479;53.514;9.994;2022-07-31T06:15:52;19.60;99.90
981;DHT22;479;53.514;9.994;2022-07-31T06:18:21;19.50;99.90
981;DHT22;479;53.514;9.994;2022-07-31T06:20:48;19.50;99.90
981;DHT22;479;53.514;9.994;2022-07-31T06:23:18;19.50;99.90
981;DHT22;479;53.514;9.994;2022-07-31T06:25:45;19.80;99.90
981;DHT22;479;53.514;9.994;2022-07-31T06:28:12;19.70;99.90
981;DHT22;479;53.514;9.994;2022-07-31T06:30:40;19.80;99.90
981;DHT22;479;53.514;9.994;2022-07-31T06:33:07;19.80;99.90
981;DHT22;479;53.514;9.994;2022-07-31T06:35:35;19.60;99.90
981;DHT22;479;53.514;9.994;2022-07-31T06:38:30;19.50;99.90
981;DHT22;479;53.514;9.994;2022-07-31T06:41:17;19.50;99.90
981;DHT22;479;53.514;9.994;2022-07-31T06:44:19;19.50;99.90
981;DHT22;479;53.514;9.994;2022-07-31T06:47:15;19.70;99.90
981;DHT22;479;53.514;9.994;2022-07-31T06:49:49;19.70;99.90
981;DHT22;479;53.514;9.994;2022-07-31T06:52:16;19.80;99.90
981;DHT22;479;53.514;9.994;2022-07-31T06:54:45;19.80;99.90
981;DHT22;479;53.514;9.994;2022-07-31T06:57:12;19.90;99.90
981;DHT22;479;53.514;9.994;2022-07-31T06:59:40;19.90;99.90
981;DHT22;479;53.514;9.994;2022-07-31T07:02:08;19.90;99.90
981;DHT22;479;53.514;9.994;2022-07-31T07:04:35;19.90;99.90
981;DHT22;479;53.514;9.994;2022-07-31T07:07:03;19.90;99.90
981;DHT22;479;53.514;9.994;2022-07-31T07:09:32;19.90;99.90
981;DHT22;479;53.514;9.994;2022-07-31T07:12:00;20.00;99.90
981;DHT22;479;53.514;9.994;2022-07-31T07:14:27;20.00;99.90
981;DHT22;479;53.514;9.994;2022-07-31T07:16:54;20.20;99.90
981;DHT22;479;53.514;9.994;2022-07-31T07:19:21;20.20;99.90
981;DHT22;479;53.514;9.994;2022-07-31T07:21:48;20.40;99.90
981;DHT22;479;53.514;9.994;2022-07-31T07:24:15;20.50;99.90
981;DHT22;479;53.514;9.994;2022-07-31T07:27:04;20.40;99.90
981;DHT22;479;53.514;9.994;2022-07-31T07:29:31;20.60;99.90
981;DHT22;479;53.514;9.994;2022-07-31T07:31:58;20.60;99.90
981;DHT22;479;53.514;9.994;2022-07-31T07:34:25;20.60;99.90
981;DHT22;479;53.514;9.994;2022-07-31T07:36:52;20.40;99.90
981;DHT22;479;53.514;9.994;2022-07-31T07:39:22;20.50;99.90
981;DHT22;479;53.514;9.994;2022-07-31T07:41:50;20.80;99.90
981;DHT22;479;53.514;9.994;2022-07-31T07:44:19;21.00;99.90
981;DHT22;479;53.514;9.994;2022-07-31T07:46:46;21.20;99.90
981;DHT22;479;53.514;9.994;2022-07-31T07:49:16;21.30;99.90
981;DHT22;479;53.514;9.994;2022-07-31T07:51:55;21.10;99.90
981;DHT22;479;53.514;9.994;2022-07-31T07:54:45;21.20;99.90
981;DHT22;479;53.514;9.994;2022-07-31T07:57:38;21.00;99.90
981;DHT22;479;53.514;9.994;2022-07-31T08:00:25;21.10;99.90
981;DHT22;479;53.514;9.994;2022-07-31T08:02:57;21.10;99.90
981;DHT22;479;53.514;9.994;2022-07-31T08:05:24;21.00;99.90
981;DHT22;479;53.514;9.994;2022-07-31T08:07:51;21.10;99.90
981;DHT22;479;53.514;9.994;2022-07-31T08:10:34;21.10;99.90
981;DHT22;479;53.514;9.994;2022-07-31T08:13:24;21.20;99.90
981;DHT22;479;53.514;9.994;2022-07-31T08:16:24;21.30;99.90
981;DHT22;479;53.514;9.994;2022-07-31T08:18:55;21.40;99.90
981;DHT22;479;53.514;9.994;2022-07-31T08:21:22;21.40;99.90
981;DHT22;479;53.514;9.994;2022-07-31T08:23:49;21.30;99.90
981;DHT22;479;53.514;9.994;2022-07-31T08:26:17;21.20;99.90
981;DHT22;479;53.514;9.994;2022-07-31T08:28:45;21.30;99.90
981;DHT22;479;53.514;9.994;2022-07-31T08:31:12;21.30;99.90
981;DHT22;479;53.514;9.994;2022-07-31T08:33:52;21.40;99.90
981;DHT22;479;53.514;9.994;2022-07-31T08:36:19;21.50;99.90
981;DHT22;479;53.514;9.994;2022-07-31T08:38:46;21.50;99.90
981;DHT22;479;53.514;9.994;2022-07-31T08:41:36;21.40;99.90
981;DHT22;479;53.514;9.994;2022-07-31T08:44:05;21.50;99.90
981;DHT22;479;53.514;9.994;2022-07-31T08:46:36;21.90;99.90
981;DHT22;479;53.514;9.994;2022-07-31T08:49:06;21.90;99.90
981;DHT22;479;53.514;9.994;2022-07-31T08:51:37;21.90;99.90
981;DHT22;479;53.514;9.994;2022-07-31T08:54:13;22.10;99.90
981;DHT22;479;53.514;9.994;2022-07-31T08:56:41;22.40;99.90
981;DHT22;479;53.514;9.994;2022-07-31T08:59:08;22.20;99.90
981;DHT22;479;53.514;9.994;2022-07-31T09:01:37;22.00;99.90
981;DHT22;479;53.514;9.994;2022-07-31T09:04:06;21.80;99.90
981;DHT22;479;53.514;9.994;2022-07-31T09:06:35;21.60;99.90
981;DHT22;479;53.514;9.994;2022-07-31T09:09:02;21.70;99.90
981;DHT22;479;53.514;9.994;2022-07-31T09:11:29;22.00;99.90
981;DHT22;479;53.514;9.994;2022-07-31T09:14:23;22.10;99.90
981;DHT22;479;53.514;9.994;2022-07-31T09:16:53;22.00;99.90
981;DHT22;479;53.514;9.994;2022-07-31T09:19:35;22.10;99.90
981;DHT22;479;53.514;9.994;2022-07-31T09:22:20;22.40;99.90
981;DHT22;479;53.514;9.994;2022-07-31T09:24:48;22.40;99.90
981;DHT22;479;53.514;9.994;2022-07-31T09:27:15;22.50;99.90
981;DHT22;479;53.514;9.994;2022-07-31T09:29:44;22.40;99.90
981;DHT22;479;53.514;9.994;2022-07-31T09:32:24;22.40;99.90
981;DHT22;479;53.514;9.994;2022-07-31T09:35:09;22.40;99.90
981;DHT22;479;53.514;9.994;2022-07-31T09:37:37;22.40;99.90
981;DHT22;479;53.514;9.994;2022-07-31T09:40:33;22.40;99.90
981;DHT22;479;53.514;9.994;2022-07-31T09:43:43;22.70;99.90
981;DHT22;479;53.514;9.994;2022-07-31T09:46:11;23.10;99.90
981;DHT22;479;53.514;9.994;2022-07-31T09:48:48;23.40;99.90
981;DHT22;479;53.514;9.994;2022-07-31T09:51:18;23.70;98.60
981;DHT22;479;53.514;9.994;2022-07-31T09:53:46;23.80;97.60
981;DHT22;479;53.514;9.994;2022-07-31T09:56:43;23.90;97.20
981;DHT22;479;53.514;9.994;2022-07-31T09:59:11;24.10;94.80
981;DHT22;479;53.514;9.994;2022-07-31T10:01:38;24.50;93.90
981;DHT22;479;53.514;9.994;2022-07-31T10:04:09;24.70;90.70
981;DHT22;479;53.514;9.994;2022-07-31T10:06:38;24.60;90.40
981;DHT22;479;53.514;9.994;2022-07-31T10:09:08;24.90;87.70
981;DHT22;479;53.514;9.994;2022-07-31T10:11:55;24.90;86.60
981;DHT22;479;53.514;9.994;2022-07-31T10:14:27;24.70;87.20
981;DHT22;479;53.514;9.994;2022-07-31T10:16:59;24.90;90.00
981;DHT22;479;53.514;9.994;2022-07-31T10:19:48;25.30;86.40
981;DHT22;479;53.514;9.994;2022-07-31T10:22:26;25.70;84.00
981;DHT22;479;53.514;9.994;2022-07-31T10:25:00;25.70;80.10
981;DHT22;479;53.514;9.994;2022-07-31T10:27:28;25.50;80.30
981;DHT22;479;53.514;9.994;2022-07-31T10:30:05;25.20;80.80
981;DHT22;479;53.514;9.994;2022-07-31T10:32:35;25.60;79.70
981;DHT22;479;53.514;9.994;2022-07-31T10:35:21;26.20;75.00
981;DHT22;479;53.514;9.994;2022-07-31T10:38:20;26.40;75.20
981;DHT22;479;53.514;9.994;2022-07-31T10:41:21;26.40;73.70
981;DHT22;479;53.514;9.994;2022-07-31T10:43:57;26.80;73.10
981;DHT22;479;53.514;9.994;2022-07-31T10:46:45;26.80;71.20
981;DHT22;479;53.514;9.994;2022-07-31T10:49:38;26.60;73.30
981;DHT22;479;53.514;9.994;2022-07-31T10:52:32;26.80;71.40
981;DHT22;479;53.514;9.994;2022-07-31T10:55:24;26.40;72.40
981;DHT22;479;53.514;9.994;2022-07-31T10:58:07;26.20;74.70
981;DHT22;479;53.514;9.994;2022-07-31T11:01:03;26.30;74.60
981;DHT22;479;53.514;9.994;2022-07-31T11:03:41;26.30;75.10
981;DHT22;479;53.514;9.994;2022-07-31T11:06:38;26.30;73.80
981;DHT22;479;53.514;9.994;2022-07-31T11:09:42;26.30;73.90
981;DHT22;479;53.514;9.994;2022-07-31T11:12:30;26.30;71.90
981;DHT22;479;53.514;9.994;2022-07-31T11:15:27;25.90;71.90
981;DHT22;479;53.514;9.994;2022-07-31T11:18:14;25.90;74.80
981;DHT22;479;53.514;9.994;2022-07-31T11:21:00;26.00;71.50
981;DHT22;479;53.514;9.994;2022-07-31T11:23:29;26.10;69.90
981;DHT22;479;53.514;9.994;2022-07-31T11:25:59;26.10;71.30
981;DHT22;479;53.514;9.994;2022-07-31T11:28:30;26.30;70.10
981;DHT22;479;53.514;9.994;2022-07-31T11:31:02;26.40;70.30
981;DHT22;479;53.514;9.994;2022-07-31T11:33:33;26.40;67.30
981;DHT22;479;53.514;9.994;2022-07-31T11:36:08;26.30;68.40
981;DHT22;479;53.514;9.994;2022-07-31T11:38:37;26.30;70.30
981;DHT22;479;53.514;9.994;2022-07-31T11:41:04;26.40;69.90
981;DHT22;479;53.514;9.994;2022-07-31T11:43:33;26.70;67.90
981;DHT22;479;53.514;9.994;2022-07-31T11:46:02;26.90;66.70
981;DHT22;479;53.514;9.994;2022-07-31T11:48:37;27.10;66.60
981;DHT22;479;53.514;9.994;2022-07-31T11:51:05;27.20;67.20
981;DHT22;479;53.514;9.994;2022-07-31T11:53:39;27.00;65.60
981;DHT22;479;53.514;9.994;2022-07-31T11:56:07;26.90;68.00
981;DHT22;479;53.514;9.994;2022-07-31T11:58:35;26.90;66.90
981;DHT22;479;53.514;9.994;2022-07-31T12:01:06;27.00;67.30
981;DHT22;479;53.514;9.994;2022-07-31T12:03:34;26.90;66.00
981;DHT22;479;53.514;9.994;2022-07-31T12:06:02;27.10;68.50
981;DHT22;479;53.514;9.994;2022-07-31T12:08:33;27.00;66.90
981;DHT22;479;53.514;9.994;2022-07-31T12:11:01;27.30;65.70
981;DHT22;479;53.514;9.994;2022-07-31T12:13:29;27.60;64.10
981;DHT22;479;53.514;9.994;2022-07-31T12:15:59;27.90;62.00
981;DHT22;479;53.514;9.994;2022-07-31T12:18:28;28.20;61.30
981;DHT22;479;53.514;9.994;2022-07-31T12:20:57;28.30;61.60
981;DHT22;479;53.514;9.994;2022-07-31T12:23:25;28.20;59.90
981;DHT22;479;53.514;9.994;2022-07-31T12:25:52;28.10;59.40
981;DHT22;479;53.514;9.994;2022-07-31T12:28:19;28.10;58.90
981;DHT22;479;53.514;9.994;2022-07-31T12:30:58;28.10;59.10
981;DHT22;479;53.514;9.994;2022-07-31T12:33:26;27.80;59.30
981;DHT22;479;53.514;9.994;2022-07-31T12:35:55;27.60;59.30
981;DHT22;479;53.514;9.994;2022-07-31T12:38:26;27.40;60.30
981;DHT22;479;53.514;9.994;2022-07-31T12:41:03;27.40;60.90
981;DHT22;479;53.514;9.994;2022-07-31T12:43:30;27.50;61.50
981;DHT22;479;53.514;9.994;2022-07-31T12:45:59;27.50;60.60
981;DHT22;479;53.514;9.994;2022-07-31T12:48:30;27.40;60.70
981;DHT22;479;53.514;9.994;2022-07-31T12:50:57;27.30;60.20
981;DHT22;479;53.514;9.994;2022-07-31T12:53:26;27.10;61.70
981;DHT22;479;53.514;9.994;2022-07-31T12:55:54;27.00;61.70
981;DHT22;479;53.514;9.994;2022-07-31T12:58:21;26.90;61.70
981;DHT22;479;53.514;9.994;2022-07-31T13:00:48;26.80;62.40
981;DHT22;479;53.514;9.994;2022-07-31T13:03:16;26.70;62.00
981;DHT22;479;53.514;9.994;2022-07-31T13:05:43;26.70;63.40
981;DHT22;479;53.514;9.994;2022-07-31T13:08:10;26.70;63.80
981;DHT22;479;53.514;9.994;2022-07-31T13:10:37;26.70;64.20
981;DHT22;479;53.514;9.994;2022-07-31T13:13:04;26.60;64.90
981;DHT22;479;53.514;9.994;2022-07-31T13:15:31;26.40;65.20
981;DHT22;479;53.514;9.994;2022-07-31T13:18:00;26.20;66.00
981;DHT22;479;53.514;9.994;2022-07-31T13:20:29;26.10;66.60
981;DHT22;479;53.514;9.994;2022-07-31T13:22:56;26.00;67.90
981;DHT22;479;53.514;9.994;2022-07-31T13:25:24;25.90;69.20
981;DHT22;479;53.514;9.994;2022-07-31T13:27:51;25.80;69.80
981;DHT22;479;53.514;9.994;2022-07-31T13:30:18;25.70;70.30
981;DHT22;479;53.514;9.994;2022-07-31T13:32:45;25.70;70.90
981;DHT22;479;53.514;9.994;2022-07-31T13:35:12;25.70;71.40
981;DHT22;479;53.514;9.994;2022-07-31T13:37:41;25.70;70.50
981;DHT22;479;53.514;9.994;2022-07-31T13:40:08;25.60;69.80
981;DHT22;479;53.514;9.994;2022-07-31T13:42:35;25.60;70.50
981;DHT22;479;53.514;9.994;2022-07-31T13:45:02;25.60;71.10
981;DHT22;479;53.514;9.994;2022-07-31T13:47:29;25.70;71.90
981;DHT22;479;53.514;9.994;2022-07-31T13:49:56;25.70;72.50
981;DHT22;479;53.514;9.994;2022-07-31T13:52:23;25.80;72.80
981;DHT22;479;53.514;9.994;2022-07-31T13:54:52;25.80;72.70
981;DHT22;479;53.514;9.994;2022-07-31T13:57:18;25.80;73.90
981;DHT22;479;53.514;9.994;2022-07-31T13:59:45;25.80;74.10
981;DHT22;479;53.514;9.994;2022-07-31T14:02:12;25.70;75.20
981;DHT22;479;53.514;9.994;2022-07-31T14:04:39;25.60;76.60
981;DHT22;479;53.514;9.994;2022-07-31T14:07:06;25.50;77.00
981;DHT22;479;53.514;9.994;2022-07-31T14:09:33;25.60;78.40
981;DHT22;479;53.514;9.994;2022-07-31T14:12:02;25.60;77.80
981;DHT22;479;53.514;9.994;2022-07-31T14:14:29;25.50;77.90
981;DHT22;479;53.514;9.994;2022-07-31T14:16:55;25.50;80.30
981;DHT22;479;53.514;9.994;2022-07-31T14:19:22;25.40;81.20
981;DHT22;479;53.514;9.994;2022-07-31T14:21:49;25.30;83.40
981;DHT22;479;53.514;9.994;2022-07-31T14:24:16;25.20;85.30
981;DHT22;479;53.514;9.994;2022-07-31T14:26:43;25.20;83.80
981;DHT22;479;53.514;9.994;2022-07-31T14:29:11;25.20;86.20
981;DHT22;479;53.514;9.994;2022-07-31T14:31:38;25.20;87.70
981;DHT22;479;53.514;9.994;2022-07-31T14:34:05;25.00;91.00
981;DHT22;479;53.514;9.994;2022-07-31T14:36:32;24.90;96.50
981;DHT22;479;53.514;9.994;2022-07-31T14:38:59;24.80;96.70
981;DHT22;479;53.514;9.994;2022-07-31T14:41:26;24.80;97.80
981;DHT22;479;53.514;9.994;2022-07-31T14:43:53;24.70;99.90
981;DHT22;479;53.514;9.994;2022-07-31T14:46:21;24.60;99.90
981;DHT22;479;53.514;9.994;2022-07-31T14:48:48;24.50;99.90
981;DHT22;479;53.514;9.994;2022-07-31T14:51:18;24.40;99.90
981;DHT22;479;53.514;9.994;2022-07-31T14:53:45;24.20;99.90
981;DHT22;479;53.514;9.994;2022-07-31T14:56:12;24.00;99.90
981;DHT22;479;53.514;9.994;2022-07-31T14:58:39;23.80;99.90
981;DHT22;479;53.514;9.994;2022-07-31T15:01:05;23.50;99.90
981;DHT22;479;53.514;9.994;2022-07-31T15:03:34;23.20;99.90
981;DHT22;479;53.514;9.994;2022-07-31T15:06:00;22.90;99.90
981;DHT22;479;53.514;9.994;2022-07-31T15:08:27;22.70;99.90
981;DHT22;479;53.514;9.994;2022-07-31T15:10:54;22.50;99.90
981;DHT22;479;53.514;9.994;2022-07-31T15:13:21;22.40;99.90
981;DHT22;479;53.514;9.994;2022-07-31T15:15:48;22.40;99.90
981;DHT22;479;53.514;9.994;2022-07-31T15:18:15;22.30;99.90
981;DHT22;479;53.514;9.994;2022-07-31T15:20:43;22.20;99.90
981;DHT22;479;53.514;9.994;2022-07-31T15:23:10;22.10;99.90
981;DHT22;479;53.514;9.994;2022-07-31T15:25:37;21.90;99.90
981;DHT22;479;53.514;9.994;2022-07-31T15:28:04;21.80;99.90
981;DHT22;479;53.514;9.994;2022-07-31T15:30:34;21.90;99.90
981;DHT22;479;53.514;9.994;2022-07-31T15:33:01;21.90;99.90
981;DHT22;479;53.514;9.994;2022-07-31T15:35:28;21.80;99.90
981;DHT22;479;53.514;9.994;2022-07-31T15:37:57;21.70;99.90
981;DHT22;479;53.514;9.994;2022-07-31T15:40:24;21.60;99.90
981;DHT22;479;53.514;9.994;2022-07-31T15:42:52;21.50;99.90
981;DHT22;479;53.514;9.994;2022-07-31T15:45:19;21.40;99.90
981;DHT22;479;53.514;9.994;2022-07-31T15:47:47;21.40;99.90
981;DHT22;479;53.514;9.994;2022-07-31T15:50:15;21.40;99.90
981;DHT22;479;53.514;9.994;2022-07-31T15:52:43;21.40;99.90
981;DHT22;479;53.514;9.994;2022-07-31T15:55:11;21.40;99.90
981;DHT22;479;53.514;9.994;2022-07-31T15:57:38;21.30;99.90
981;DHT22;479;53.514;9.994;2022-07-31T16:00:07;21.30;99.90
981;DHT22;479;53.514;9.994;2022-07-31T16:02:38;21.30;99.90
981;DHT22;479;53.514;9.994;2022-07-31T16:05:06;21.30;99.90
981;DHT22;479;53.514;9.994;2022-07-31T16:07:33;21.30;99.90
981;DHT22;479;53.514;9.994;2022-07-31T16:10:00;21.20;99.90
981;DHT22;479;53.514;9.994;2022-07-31T16:12:29;21.10;99.90
981;DHT22;479;53.514;9.994;2022-07-31T16:14:55;21.10;99.90
981;DHT22;479;53.514;9.994;2022-07-31T16:17:23;21.00;99.90
981;DHT22;479;53.514;9.994;2022-07-31T16:20:03;21.10;99.90
981;DHT22;479;53.514;9.994;2022-07-31T16:22:31;21.00;99.90
981;DHT22;479;53.514;9.994;2022-07-31T16:24:58;20.90;99.90
981;DHT22;479;53.514;9.994;2022-07-31T16:27:25;21.00;99.90
981;DHT22;479;53.514;9.994;2022-07-31T16:29:53;21.00;99.90
981;DHT22;479;53.514;9.994;2022-07-31T16:32:20;21.00;99.90
981;DHT22;479;53.514;9.994;2022-07-31T16:34:46;21.00;99.90
981;DHT22;479;53.514;9.994;2022-07-31T16:37:13;21.00;99.90
981;DHT22;479;53.514;9.994;2022-07-31T16:39:40;20.90;99.90
981;DHT22;479;53.514;9.994;2022-07-31T16:42:07;20.80;99.90
981;DHT22;479;53.514;9.994;2022-07-31T16:44:34;20.60;99.90
981;DHT22;479;53.514;9.994;2022-07-31T16:47:05;20.60;99.90
981;DHT22;479;53.514;9.994;2022-07-31T16:49:33;20.50;99.90
981;DHT22;479;53.514;9.994;2022-07-31T16:52:00;20.50;99.90
981;DHT22;479;53.514;9.994;2022-07-31T16:54:27;20.40;99.90
981;DHT22;479;53.514;9.994;2022-07-31T16:56:59;20.40;99.90
981;DHT22;479;53.514;9.994;2022-07-31T16:59:35;20.40;99.90